Terminal Aerodrome Forecast
Issued by NWS

Home | Current Version | Previous Version | Text Only | Print | Product List | Glossary On
Versions: 1 2 3 4 5 6 7 8 9 10 11 12
000
FTUS44 KOUN 110520
TAFPNC
TAF
KPNC 110520Z 1106/1206 24003KT P6SM SKC
     FM111600 33014G21KT P6SM FEW250
     FM120000 34011KT P6SM FEW250=

USA.gov is the U.S. government's official web portal to all federal, state and local government web resources and services.